sensor_id;sensor_type;location;lat;lon;timestamp;temperature;humidity
21184;DHT22;18176;49.502;11.754;2023-06-10T00:02:17;15.10;99.90
21184;DHT22;18176;49.502;11.754;2023-06-10T00:06:18;15.00;99.90
21184;DHT22;18176;49.502;11.754;2023-06-10T00:10:25;14.90;99.90
21184;DHT22;18176;49.502;11.754;2023-06-10T00:14:25;14.80;99.90
21184;DHT22;18176;49.502;11.754;2023-06-10T00:18:26;14.70;99.90
21184;DHT22;18176;49.502;11.754;2023-06-10T00:22:28;14.70;99.90
21184;DHT22;18176;49.502;11.754;2023-06-10T00:26:32;14.70;99.90
21184;DHT22;18176;49.502;11.754;2023-06-10T00:30:33;14.70;99.90
21184;DHT22;18176;49.502;11.754;2023-06-10T00:34:33;14.60;99.90
21184;DHT22;18176;49.502;11.754;2023-06-10T00:38:34;14.60;99.90
21184;DHT22;18176;49.502;11.754;2023-06-10T00:42:37;14.50;99.90
21184;DHT22;18176;49.502;11.754;2023-06-10T00:46:37;14.40;99.90
21184;DHT22;18176;49.502;11.754;2023-06-10T00:50:38;14.40;99.90
21184;DHT22;18176;49.502;11.754;2023-06-10T00:54:39;14.30;99.90
21184;DHT22;18176;49.502;11.754;2023-06-10T00:58:43;14.30;99.90
21184;DHT22;18176;49.502;11.754;2023-06-10T01:02:43;14.20;99.90
21184;DHT22;18176;49.502;11.754;2023-06-10T01:06:51;14.20;99.90
21184;DHT22;18176;49.502;11.754;2023-06-10T01:11:05;14.00;99.90
21184;DHT22;18176;49.502;11.754;2023-06-10T01:15:16;14.10;99.90
21184;DHT22;18176;49.502;11.754;2023-06-10T01:19:19;14.00;99.90
21184;DHT22;18176;49.502;11.754;2023-06-10T01:23:24;14.00;99.90
21184;DHT22;18176;49.502;11.754;2023-06-10T01:27:26;13.90;99.90
21184;DHT22;18176;49.502;11.754;2023-06-10T01:31:36;13.80;99.90
21184;DHT22;18176;49.502;11.754;2023-06-10T01:35:43;13.80;99.90
21184;DHT22;18176;49.502;11.754;2023-06-10T01:39:48;13.60;99.90
21184;DHT22;18176;49.502;11.754;2023-06-10T01:43:50;13.60;99.90
21184;DHT22;18176;49.502;11.754;2023-06-10T01:47:50;13.60;99.90
21184;DHT22;18176;49.502;11.754;2023-06-10T01:51:51;13.50;99.90
21184;DHT22;18176;49.502;11.754;2023-06-10T01:55:54;13.50;99.90
21184;DHT22;18176;49.502;11.754;2023-06-10T01:59:55;13.40;99.90
21184;DHT22;18176;49.502;11.754;2023-06-10T02:03:55;13.40;99.90
21184;DHT22;18176;49.502;11.754;2023-06-10T02:07:56;13.30;99.90
21184;DHT22;18176;49.502;11.754;2023-06-10T02:12:01;13.20;99.90
21184;DHT22;18176;49.502;11.754;2023-06-10T02:16:03;13.20;99.90
21184;DHT22;18176;49.502;11.754;2023-06-10T02:20:05;13.10;99.90
21184;DHT22;18176;49.502;11.754;2023-06-10T02:24:08;13.10;99.90
21184;DHT22;18176;49.502;11.754;2023-06-10T02:28:11;13.10;99.90
21184;DHT22;18176;49.502;11.754;2023-06-10T02:32:12;13.00;99.90
21184;DHT22;18176;49.502;11.754;2023-06-10T02:36:13;13.00;99.90
21184;DHT22;18176;49.502;11.754;2023-06-10T02:40:13;12.90;99.90
21184;DHT22;18176;49.502;11.754;2023-06-10T02:44:17;12.90;99.90
21184;DHT22;18176;49.502;11.754;2023-06-10T02:48:19;12.80;99.90
21184;DHT22;18176;49.502;11.754;2023-06-10T02:52:20;12.80;99.90
21184;DHT22;18176;49.502;11.754;2023-06-10T02:56:22;12.80;99.90
21184;DHT22;18176;49.502;11.754;2023-06-10T03:00:28;12.90;99.90
21184;DHT22;18176;49.502;11.754;2023-06-10T03:04:29;12.80;99.90
21184;DHT22;18176;49.502;11.754;2023-06-10T03:08:36;12.90;99.90
21184;DHT22;18176;49.502;11.754;2023-06-10T03:12:41;12.80;99.90
21184;DHT22;18176;49.502;11.754;2023-06-10T03:16:45;12.80;99.90
21184;DHT22;18176;49.502;11.754;2023-06-10T03:20:45;12.70;99.90
21184;DHT22;18176;49.502;11.754;2023-06-10T03:24:47;12.70;99.90
21184;DHT22;18176;49.502;11.754;2023-06-10T03:28:49;12.70;99.90
21184;DHT22;18176;49.502;11.754;2023-06-10T03:32:54;12.70;99.90
21184;DHT22;18176;49.502;11.754;2023-06-10T03:36:57;12.70;99.90
21184;DHT22;18176;49.502;11.754;2023-06-10T03:40:57;12.70;99.90
21184;DHT22;18176;49.502;11.754;2023-06-10T03:44:59;12.70;99.90
21184;DHT22;18176;49.502;11.754;2023-06-10T03:49:04;12.80;99.90
21184;DHT22;18176;49.502;11.754;2023-06-10T03:53:04;12.80;99.90
21184;DHT22;18176;49.502;11.754;2023-06-10T03:57:07;12.80;99.90
21184;DHT22;18176;49.502;11.754;2023-06-10T04:01:08;12.90;99.90
21184;DHT22;18176;49.502;11.754;2023-06-10T04:05:13;12.90;99.90
21184;DHT22;18176;49.502;11.754;2023-06-10T04:09:13;12.80;99.90
21184;DHT22;18176;49.502;11.754;2023-06-10T04:13:16;12.80;99.90
21184;DHT22;18176;49.502;11.754;2023-06-10T04:17:23;12.80;99.90
21184;DHT22;18176;49.502;11.754;2023-06-10T04:21:26;12.90;99.90
21184;DHT22;18176;49.502;11.754;2023-06-10T04:25:27;12.90;99.90
21184;DHT22;18176;49.502;11.754;2023-06-10T04:29:28;12.90;99.90
21184;DHT22;18176;49.502;11.754;2023-06-10T04:33:29;12.90;99.90
21184;DHT22;18176;49.502;11.754;2023-06-10T04:37:35;12.90;99.90
21184;DHT22;18176;49.502;11.754;2023-06-10T04:41:36;13.00;99.90
21184;DHT22;18176;49.502;11.754;2023-06-10T04:45:37;13.10;99.90
21184;DHT22;18176;49.502;11.754;2023-06-10T04:49:42;13.20;99.90
21184;DHT22;18176;49.502;11.754;2023-06-10T04:53:45;13.30;99.90
21184;DHT22;18176;49.502;11.754;2023-06-10T04:57:46;13.30;99.90
21184;DHT22;18176;49.502;11.754;2023-06-10T05:01:48;13.40;99.90
21184;DHT22;18176;49.502;11.754;2023-06-10T05:05:49;13.40;99.90
21184;DHT22;18176;49.502;11.754;2023-06-10T05:09:52;13.60;99.90
21184;DHT22;18176;49.502;11.754;2023-06-10T05:13:52;13.70;99.90
21184;DHT22;18176;49.502;11.754;2023-06-10T05:17:53;13.90;99.90
21184;DHT22;18176;49.502;11.754;2023-06-10T05:21:53;14.10;99.90
21184;DHT22;18176;49.502;11.754;2023-06-10T05:25:57;14.30;99.90
21184;DHT22;18176;49.502;11.754;2023-06-10T05:29:57;14.50;99.90
21184;DHT22;18176;49.502;11.754;2023-06-10T05:33:58;14.70;99.90
21184;DHT22;18176;49.502;11.754;2023-06-10T05:37:59;15.10;99.90
21184;DHT22;18176;49.502;11.754;2023-06-10T05:42:03;15.40;99.90
21184;DHT22;18176;49.502;11.754;2023-06-10T05:46:05;15.70;99.90
21184;DHT22;18176;49.502;11.754;2023-06-10T05:50:06;15.90;99.90
21184;DHT22;18176;49.502;11.754;2023-06-10T05:54:08;16.10;99.90
21184;DHT22;18176;49.502;11.754;2023-06-10T05:58:11;16.40;99.90
21184;DHT22;18176;49.502;11.754;2023-06-10T06:02:12;16.60;99.90
21184;DHT22;18176;49.502;11.754;2023-06-10T06:06:13;16.80;99.90
21184;DHT22;18176;49.502;11.754;2023-06-10T06:10:13;16.90;99.90
21184;DHT22;18176;49.502;11.754;2023-06-10T06:14:16;17.00;99.90
21184;DHT22;18176;49.502;11.754;2023-06-10T06:18:17;17.20;99.90
21184;DHT22;18176;49.502;11.754;2023-06-10T06:22:18;17.30;99.90
21184;DHT22;18176;49.502;11.754;2023-06-10T06:26:19;17.50;99.90
21184;DHT22;18176;49.502;11.754;2023-06-10T06:30:22;17.70;99.90
21184;DHT22;18176;49.502;11.754;2023-06-10T06:34:23;17.70;99.90
21184;DHT22;18176;49.502;11.754;2023-06-10T06:38:24;17.90;99.90
21184;DHT22;18176;49.502;11.754;2023-06-10T06:42:24;18.00;99.90
21184;DHT22;18176;49.502;11.754;2023-06-10T06:46:35;18.20;99.90
21184;DHT22;18176;49.502;11.754;2023-06-10T06:50:36;18.30;99.90
21184;DHT22;18176;49.502;11.754;2023-06-10T06:54:38;18.50;99.90
21184;DHT22;18176;49.502;11.754;2023-06-10T06:58:39;18.50;99.90
21184;DHT22;18176;49.502;11.754;2023-06-10T07:02:44;18.80;99.90
21184;DHT22;18176;49.502;11.754;2023-06-10T07:06:44;18.90;99.90
21184;DHT22;18176;49.502;11.754;2023-06-10T07:10:45;19.10;99.90
21184;DHT22;18176;49.502;11.754;2023-06-10T07:14:46;19.20;99.90
21184;DHT22;18176;49.502;11.754;2023-06-10T07:18:49;19.40;99.90
21184;DHT22;18176;49.502;11.754;2023-06-10T07:27:49;19.60;99.90
21184;DHT22;18176;49.502;11.754;2023-06-10T07:31:51;19.90;99.90
21184;DHT22;18176;49.502;11.754;2023-06-10T07:35:52;20.10;99.90
21184;DHT22;18176;49.502;11.754;2023-06-10T07:39:57;20.30;99.90
21184;DHT22;18176;49.502;11.754;2023-06-10T07:44:03;20.50;99.90
21184;DHT22;18176;49.502;11.754;2023-06-10T07:48:04;20.70;99.90
21184;DHT22;18176;49.502;11.754;2023-06-10T07:52:07;20.70;99.90
21184;DHT22;18176;49.502;11.754;2023-06-10T07:56:08;20.70;99.90
21184;DHT22;18176;49.502;11.754;2023-06-10T08:00:12;20.90;99.90
21184;DHT22;18176;49.502;11.754;2023-06-10T08:04:14;21.00;99.90
21184;DHT22;18176;49.502;11.754;2023-06-10T08:08:15;21.20;99.90
21184;DHT22;18176;49.502;11.754;2023-06-10T08:12:16;22.00;99.90
21184;DHT22;18176;49.502;11.754;2023-06-10T08:16:20;23.40;99.90
21184;DHT22;18176;49.502;11.754;2023-06-10T08:20:21;25.00;99.90
21184;DHT22;18176;49.502;11.754;2023-06-10T08:24:21;25.90;99.90
21184;DHT22;18176;49.502;11.754;2023-06-10T08:28:23;26.40;99.90
21184;DHT22;18176;49.502;11.754;2023-06-10T08:32:27;25.90;99.90
21184;DHT22;18176;49.502;11.754;2023-06-10T08:36:28;25.10;99.90
21184;DHT22;18176;49.502;11.754;2023-06-10T08:40:29;24.00;99.90
21184;DHT22;18176;49.502;11.754;2023-06-10T08:44:32;24.40;99.90
21184;DHT22;18176;49.502;11.754;2023-06-10T08:48:42;25.50;99.90
21184;DHT22;18176;49.502;11.754;2023-06-10T08:52:44;26.00;99.90
21184;DHT22;18176;49.502;11.754;2023-06-10T08:56:49;25.20;99.90
21184;DHT22;18176;49.502;11.754;2023-06-10T09:00:54;24.50;99.90
21184;DHT22;18176;49.502;11.754;2023-06-10T09:04:59;24.20;99.90
21184;DHT22;18176;49.502;11.754;2023-06-10T09:09:01;24.50;99.90
21184;DHT22;18176;49.502;11.754;2023-06-10T09:13:02;24.80;99.90
21184;DHT22;18176;49.502;11.754;2023-06-10T09:17:03;25.00;99.90
21184;DHT22;18176;49.502;11.754;2023-06-10T09:21:08;25.30;99.90
21184;DHT22;18176;49.502;11.754;2023-06-10T09:25:10;25.30;99.90
21184;DHT22;18176;49.502;11.754;2023-06-10T09:29:15;24.50;99.90
21184;DHT22;18176;49.502;11.754;2023-06-10T09:33:16;24.50;99.90
21184;DHT22;18176;49.502;11.754;2023-06-10T09:37:24;24.30;99.90
21184;DHT22;18176;49.502;11.754;2023-06-10T09:41:32;24.60;99.90
21184;DHT22;18176;49.502;11.754;2023-06-10T09:45:34;25.00;99.90
21184;DHT22;18176;49.502;11.754;2023-06-10T09:49:38;24.10;99.90
21184;DHT22;18176;49.502;11.754;2023-06-10T09:53:42;23.70;99.90
21184;DHT22;18176;49.502;11.754;2023-06-10T09:57:49;23.30;99.90
21184;DHT22;18176;49.502;11.754;2023-06-10T10:01:55;23.90;99.90
21184;DHT22;18176;49.502;11.754;2023-06-10T10:11:15;27.80;99.90
21184;DHT22;18176;49.502;11.754;2023-06-10T10:15:18;26.70;99.90
21184;DHT22;18176;49.502;11.754;2023-06-10T10:19:25;25.60;99.90
21184;DHT22;18176;49.502;11.754;2023-06-10T10:23:38;24.70;99.90
21184;DHT22;18176;49.502;11.754;2023-06-10T10:27:51;24.60;99.90
21184;DHT22;18176;49.502;11.754;2023-06-10T10:31:58;24.90;99.90
21184;DHT22;18176;49.502;11.754;2023-06-10T10:36:00;24.80;99.90
21184;DHT22;18176;49.502;11.754;2023-06-10T10:40:01;24.50;99.90
21184;DHT22;18176;49.502;11.754;2023-06-10T10:44:06;25.30;99.90
21184;DHT22;18176;49.502;11.754;2023-06-10T10:48:09;25.70;99.90
21184;DHT22;18176;49.502;11.754;2023-06-10T10:52:12;26.60;99.90
21184;DHT22;18176;49.502;11.754;2023-06-10T10:56:14;26.50;99.90
21184;DHT22;18176;49.502;11.754;2023-06-10T11:00:25;26.10;99.90
21184;DHT22;18176;49.502;11.754;2023-06-10T11:04:28;26.30;99.90
21184;DHT22;18176;49.502;11.754;2023-06-10T11:08:46;25.60;99.90
21184;DHT22;18176;49.502;11.754;2023-06-10T11:12:51;26.20;99.90
21184;DHT22;18176;49.502;11.754;2023-06-10T11:16:56;26.80;99.70
21184;DHT22;18176;49.502;11.754;2023-06-10T11:21:00;27.20;99.90
21184;DHT22;18176;49.502;11.754;2023-06-10T11:25:01;28.40;97.30
21184;DHT22;18176;49.502;11.754;2023-06-10T11:29:06;29.10;95.80
21184;DHT22;18176;49.502;11.754;2023-06-10T11:33:14;29.00;94.80
21184;DHT22;18176;49.502;11.754;2023-06-10T11:37:16;28.00;96.00
21184;DHT22;18176;49.502;11.754;2023-06-10T11:41:17;27.90;95.40
21184;DHT22;18176;49.502;11.754;2023-06-10T11:45:18;28.30;95.40
21184;DHT22;18176;49.502;11.754;2023-06-10T11:49:21;28.40;95.00
21184;DHT22;18176;49.502;11.754;2023-06-10T11:53:22;28.10;94.70
21184;DHT22;18176;49.502;11.754;2023-06-10T11:57:22;26.80;94.90
21184;DHT22;18176;49.502;11.754;2023-06-10T12:01:24;26.70;95.70
21184;DHT22;18176;49.502;11.754;2023-06-10T12:05:28;26.80;95.70
21184;DHT22;18176;49.502;11.754;2023-06-10T12:09:30;27.90;94.00
21184;DHT22;18176;49.502;11.754;2023-06-10T12:13:30;29.10;92.70
21184;DHT22;18176;49.502;11.754;2023-06-10T12:17:37;29.70;91.90
21184;DHT22;18176;49.502;11.754;2023-06-10T12:21:40;30.30;90.10
21184;DHT22;18176;49.502;11.754;2023-06-10T12:25:49;28.30;89.70
21184;DHT22;18176;49.502;11.754;2023-06-10T12:29:52;27.50;91.30
21184;DHT22;18176;49.502;11.754;2023-06-10T12:34:07;26.50;93.50
21184;DHT22;18176;49.502;11.754;2023-06-10T12:38:11;25.80;95.10
21184;DHT22;18176;49.502;11.754;2023-06-10T12:42:12;25.60;95.00
21184;DHT22;18176;49.502;11.754;2023-06-10T12:46:12;25.30;95.00
21184;DHT22;18176;49.502;11.754;2023-06-10T12:50:14;25.30;95.70
21184;DHT22;18176;49.502;11.754;2023-06-10T12:54:17;25.50;96.60
21184;DHT22;18176;49.502;11.754;2023-06-10T12:58:18;25.20;95.30
21184;DHT22;18176;49.502;11.754;2023-06-10T13:02:20;25.10;96.20
21184;DHT22;18176;49.502;11.754;2023-06-10T13:06:21;25.20;96.50
21184;DHT22;18176;49.502;11.754;2023-06-10T13:10:24;25.30;95.80
21184;DHT22;18176;49.502;11.754;2023-06-10T13:14:25;25.70;94.70
21184;DHT22;18176;49.502;11.754;2023-06-10T13:18:25;26.90;93.00
21184;DHT22;18176;49.502;11.754;2023-06-10T13:22:26;28.30;92.40
21184;DHT22;18176;49.502;11.754;2023-06-10T13:26:30;28.90;90.80
21184;DHT22;18176;49.502;11.754;2023-06-10T13:30:31;28.70;90.50
21184;DHT22;18176;49.502;11.754;2023-06-10T13:34:31;27.90;91.30
21184;DHT22;18176;49.502;11.754;2023-06-10T13:38:31;28.30;90.90
21184;DHT22;18176;49.502;11.754;2023-06-10T13:42:34;28.60;90.40
21184;DHT22;18176;49.502;11.754;2023-06-10T13:46:35;29.40;88.50
21184;DHT22;18176;49.502;11.754;2023-06-10T13:50:36;29.40;90.10
21184;DHT22;18176;49.502;11.754;2023-06-10T13:54:37;29.70;89.70
21184;DHT22;18176;49.502;11.754;2023-06-10T13:58:40;29.50;90.60
21184;DHT22;18176;49.502;11.754;2023-06-10T14:02:40;29.20;91.50
21184;DHT22;18176;49.502;11.754;2023-06-10T14:06:40;29.70;90.70
21184;DHT22;18176;49.502;11.754;2023-06-10T14:10:41;29.70;90.30
21184;DHT22;18176;49.502;11.754;2023-06-10T14:14:44;29.50;90.20
21184;DHT22;18176;49.502;11.754;2023-06-10T14:18:44;27.60;91.40
21184;DHT22;18176;49.502;11.754;2023-06-10T14:22:45;27.90;92.10
21184;DHT22;18176;49.502;11.754;2023-06-10T14:26:45;29.20;90.80
21184;DHT22;18176;49.502;11.754;2023-06-10T14:30:48;29.70;89.60
21184;DHT22;18176;49.502;11.754;2023-06-10T14:34:49;30.60;88.40
21184;DHT22;18176;49.502;11.754;2023-06-10T14:38:50;30.60;88.70
21184;DHT22;18176;49.502;11.754;2023-06-10T14:42:51;30.10;86.50
21184;DHT22;18176;49.502;11.754;2023-06-10T14:46:54;29.60;89.80
21184;DHT22;18176;49.502;11.754;2023-06-10T14:50:54;29.30;91.00
21184;DHT22;18176;49.502;11.754;2023-06-10T14:54:54;28.20;86.70
21184;DHT22;18176;49.502;11.754;2023-06-10T14:58:55;27.20;90.60
21184;DHT22;18176;49.502;11.754;2023-06-10T15:02:58;27.50;91.40
21184;DHT22;18176;49.502;11.754;2023-06-10T15:06:58;29.00;90.70
21184;DHT22;18176;49.502;11.754;2023-06-10T15:10:59;28.40;90.50
21184;DHT22;18176;49.502;11.754;2023-06-10T15:14:59;28.30;90.80
21184;DHT22;18176;49.502;11.754;2023-06-10T15:19:02;27.50;92.70
21184;DHT22;18176;49.502;11.754;2023-06-10T15:23:05;27.10;93.10
21184;DHT22;18176;49.502;11.754;2023-06-10T15:27:06;27.10;92.20
21184;DHT22;18176;49.502;11.754;2023-06-10T15:31:07;26.50;92.80
21184;DHT22;18176;49.502;11.754;2023-06-10T15:35:10;26.00;92.80
21184;DHT22;18176;49.502;11.754;2023-06-10T15:39:11;25.60;93.50
21184;DHT22;18176;49.502;11.754;2023-06-10T15:43:11;25.60;94.00
21184;DHT22;18176;49.502;11.754;2023-06-10T15:47:12;25.80;94.10
21184;DHT22;18176;49.502;11.754;2023-06-10T15:51:15;25.50;93.20
21184;DHT22;18176;49.502;11.754;2023-06-10T15:55:15;26.20;93.50
21184;DHT22;18176;49.502;11.754;2023-06-10T15:59:15;27.10;92.00
21184;DHT22;18176;49.502;11.754;2023-06-10T16:03:16;27.00;91.70
21184;DHT22;18176;49.502;11.754;2023-06-10T16:07:19;26.30;91.80
21184;DHT22;18176;49.502;11.754;2023-06-10T16:11:19;26.40;92.20
21184;DHT22;18176;49.502;11.754;2023-06-10T16:15:20;28.00;91.20
21184;DHT22;18176;49.502;11.754;2023-06-10T16:19:20;29.20;89.90
21184;DHT22;18176;49.502;11.754;2023-06-10T16:23:23;27.90;84.70
21184;DHT22;18176;49.502;11.754;2023-06-10T16:27:23;27.60;88.40
21184;DHT22;18176;49.502;11.754;2023-06-10T16:31:23;26.90;90.00
21184;DHT22;18176;49.502;11.754;2023-06-10T16:35:24;25.80;91.70
21184;DHT22;18176;49.502;11.754;2023-06-10T16:39:27;25.40;92.60
21184;DHT22;18176;49.502;11.754;2023-06-10T16:43:27;25.20;93.30
21184;DHT22;18176;49.502;11.754;2023-06-10T16:47:28;25.10;93.80
21184;DHT22;18176;49.502;11.754;2023-06-10T16:51:28;25.20;93.80
21184;DHT22;18176;49.502;11.754;2023-06-10T16:55:31;25.30;93.50
21184;DHT22;18176;49.502;11.754;2023-06-10T16:59:35;25.30;93.70
21184;DHT22;18176;49.502;11.754;2023-06-10T17:03:39;25.30;93.80
21184;DHT22;18176;49.502;11.754;2023-06-10T17:07:39;26.30;93.30
21184;DHT22;18176;49.502;11.754;2023-06-10T17:11:42;26.80;92.90
21184;DHT22;18176;49.502;11.754;2023-06-10T17:15:42;26.40;93.00
21184;DHT22;18176;49.502;11.754;2023-06-10T17:19:42;25.60;94.60
21184;DHT22;18176;49.502;11.754;2023-06-10T17:23:47;25.50;95.00
21184;DHT22;18176;49.502;11.754;2023-06-10T17:27:50;25.60;93.80
21184;DHT22;18176;49.502;11.754;2023-06-10T17:31:50;25.50;92.80
21184;DHT22;18176;49.502;11.754;2023-06-10T17:35:50;25.00;93.10
21184;DHT22;18176;49.502;11.754;2023-06-10T17:39:52;24.50;94.00
21184;DHT22;18176;49.502;11.754;2023-06-10T17:43:54;24.30;94.30
21184;DHT22;18176;49.502;11.754;2023-06-10T17:47:55;24.20;94.60
21184;DHT22;18176;49.502;11.754;2023-06-10T17:51:55;24.20;95.00
21184;DHT22;18176;49.502;11.754;2023-06-10T17:55:56;24.10;95.20
21184;DHT22;18176;49.502;11.754;2023-06-10T18:00:01;24.00;95.70
21184;DHT22;18176;49.502;11.754;2023-06-10T18:04:04;23.80;96.20
21184;DHT22;18176;49.502;11.754;2023-06-10T18:08:05;23.60;96.90
21184;DHT22;18176;49.502;11.754;2023-06-10T18:12:07;23.50;97.20
21184;DHT22;18176;49.502;11.754;2023-06-10T18:16:10;23.40;97.60
21184;DHT22;18176;49.502;11.754;2023-06-10T18:20:11;23.10;98.10
21184;DHT22;18176;49.502;11.754;2023-06-10T18:24:12;23.00;98.50
21184;DHT22;18176;49.502;11.754;2023-06-10T18:28:12;22.80;99.10
21184;DHT22;18176;49.502;11.754;2023-06-10T18:32:15;22.80;99.30
21184;DHT22;18176;49.502;11.754;2023-06-10T18:36:16;22.70;99.80
21184;DHT22;18176;49.502;11.754;2023-06-10T18:40:16;22.70;99.30
21184;DHT22;18176;49.502;11.754;2023-06-10T18:44:17;22.50;99.80
21184;DHT22;18176;49.502;11.754;2023-06-10T18:48:22;22.20;99.90
21184;DHT22;18176;49.502;11.754;2023-06-10T18:52:22;21.70;99.90
21184;DHT22;18176;49.502;11.754;2023-06-10T18:56:22;21.50;99.90
21184;DHT22;18176;49.502;11.754;2023-06-10T19:00:23;21.40;99.90
21184;DHT22;18176;49.502;11.754;2023-06-10T19:04:26;21.20;99.90
21184;DHT22;18176;49.502;11.754;2023-06-10T19:08:28;21.10;99.90
21184;DHT22;18176;49.502;11.754;2023-06-10T19:12:29;21.10;99.90
21184;DHT22;18176;49.502;11.754;2023-06-10T19:16:30;21.00;99.90
21184;DHT22;18176;49.502;11.754;2023-06-10T19:20:34;20.80;99.90
21184;DHT22;18176;49.502;11.754;2023-06-10T19:24:36;20.50;99.90
21184;DHT22;18176;49.502;11.754;2023-06-10T19:28:37;20.40;99.90
21184;DHT22;18176;49.502;11.754;2023-06-10T19:32:37;20.20;99.90
21184;DHT22;18176;49.502;11.754;2023-06-10T19:36:40;20.10;99.90
21184;DHT22;18176;49.502;11.754;2023-06-10T19:40:41;19.90;99.90
21184;DHT22;18176;49.502;11.754;2023-06-10T19:44:41;19.80;99.90
21184;DHT22;18176;49.502;11.754;2023-06-10T19:48:41;19.60;99.90
21184;DHT22;18176;49.502;11.754;2023-06-10T19:52:44;19.40;99.90
21184;DHT22;18176;49.502;11.754;2023-06-10T19:56:45;19.30;99.90
21184;DHT22;18176;49.502;11.754;2023-06-10T20:00:45;19.30;99.90
21184;DHT22;18176;49.502;11.754;2023-06-10T20:04:46;19.30;99.90
21184;DHT22;18176;49.502;11.754;2023-06-10T20:08:48;19.30;99.90
21184;DHT22;18176;49.502;11.754;2023-06-10T20:12:49;19.30;99.90
21184;DHT22;18176;49.502;11.754;2023-06-10T20:16:49;19.10;99.90
21184;DHT22;18176;49.502;11.754;2023-06-10T20:20:49;19.00;99.90
21184;DHT22;18176;49.502;11.754;2023-06-10T20:24:53;18.90;99.90
21184;DHT22;18176;49.502;11.754;2023-06-10T20:28:53;18.90;99.90
21184;DHT22;18176;49.502;11.754;2023-06-10T20:32:53;18.70;99.90
21184;DHT22;18176;49.502;11.754;2023-06-10T20:36:54;18.50;99.90
21184;DHT22;18176;49.502;11.754;2023-06-10T20:40:57;18.40;99.90
21184;DHT22;18176;49.502;11.754;2023-06-10T20:44:57;18.30;99.90
21184;DHT22;18176;49.502;11.754;2023-06-10T20:48:58;18.10;99.90
21184;DHT22;18176;49.502;11.754;2023-06-10T20:52:59;18.00;99.90
21184;DHT22;18176;49.502;11.754;2023-06-10T20:57:02;17.80;99.90
21184;DHT22;18176;49.502;11.754;2023-06-10T21:01:03;17.60;99.90
21184;DHT22;18176;49.502;11.754;2023-06-10T21:05:05;17.50;99.90
21184;DHT22;18176;49.502;11.754;2023-06-10T21:09:06;17.40;99.90
21184;DHT22;18176;49.502;11.754;2023-06-10T21:13:10;17.20;99.90
21184;DHT22;18176;49.502;11.754;2023-06-10T21:17:11;17.20;99.90
21184;DHT22;18176;49.502;11.754;2023-06-10T21:21:12;17.20;99.90
21184;DHT22;18176;49.502;11.754;2023-06-10T21:25:13;17.20;99.90
21184;DHT22;18176;49.502;11.754;2023-06-10T21:29:16;17.30;99.90
21184;DHT22;18176;49.502;11.754;2023-06-10T21:33:16;17.30;99.90
21184;DHT22;18176;49.502;11.754;2023-06-10T21:37:18;17.20;99.90
21184;DHT22;18176;49.502;11.754;2023-06-10T21:41:18;17.20;99.90
21184;DHT22;18176;49.502;11.754;2023-06-10T21:45:21;17.10;99.90
21184;DHT22;18176;49.502;11.754;2023-06-10T21:49:22;17.00;99.90
21184;DHT22;18176;49.502;11.754;2023-06-10T21:53:23;16.90;99.90
21184;DHT22;18176;49.502;11.754;2023-06-10T21:57:23;16.80;99.90
21184;DHT22;18176;49.502;11.754;2023-06-10T22:01:26;16.80;99.90
21184;DHT22;18176;49.502;11.754;2023-06-10T22:05:28;16.70;99.90
21184;DHT22;18176;49.502;11.754;2023-06-10T22:09:29;16.70;99.90
21184;DHT22;18176;49.502;11.754;2023-06-10T22:13:30;16.80;99.90
21184;DHT22;18176;49.502;11.754;2023-06-10T22:17:33;16.80;99.90
21184;DHT22;18176;49.502;11.754;2023-06-10T22:21:33;16.80;99.90
21184;DHT22;18176;49.502;11.754;2023-06-10T22:25:34;16.80;99.90
21184;DHT22;18176;49.502;11.754;2023-06-10T22:29:35;16.80;99.90
21184;DHT22;18176;49.502;11.754;2023-06-10T22:33:39;16.80;99.90
21184;DHT22;18176;49.502;11.754;2023-06-10T22:37:39;16.80;99.90
21184;DHT22;18176;49.502;11.754;2023-06-10T22:41:40;16.70;99.90
21184;DHT22;18176;49.502;11.754;2023-06-10T22:45:41;16.60;99.90
21184;DHT22;18176;49.502;11.754;2023-06-10T22:49:44;16.60;99.90
21184;DHT22;18176;49.502;11.754;2023-06-10T22:53:45;16.60;99.90
21184;DHT22;18176;49.502;11.754;2023-06-10T22:57:46;16.60;99.90
21184;DHT22;18176;49.502;11.754;2023-06-10T23:01:47;16.50;99.90
21184;DHT22;18176;49.502;11.754;2023-06-10T23:05:50;16.40;99.90
21184;DHT22;18176;49.502;11.754;2023-06-10T23:09:50;16.30;99.90
21184;DHT22;18176;49.502;11.754;2023-06-10T23:13:50;16.20;99.90
21184;DHT22;18176;49.502;11.754;2023-06-10T23:17:51;16.20;99.90
21184;DHT22;18176;49.502;11.754;2023-06-10T23:21:56;16.10;99.90
21184;DHT22;18176;49.502;11.754;2023-06-10T23:25:56;16.00;99.90
21184;DHT22;18176;49.502;11.754;2023-06-10T23:29:57;16.00;99.90
21184;DHT22;18176;49.502;11.754;2023-06-10T23:33:57;15.90;99.90
21184;DHT22;18176;49.502;11.754;2023-06-10T23:38:00;15.80;99.90
21184;DHT22;18176;49.502;11.754;2023-06-10T23:42:01;15.60;99.90
21184;DHT22;18176;49.502;11.754;2023-06-10T23:46:02;15.60;99.90
21184;DHT22;18176;49.502;11.754;2023-06-10T23:50:05;15.50;99.90
21184;DHT22;18176;49.502;11.754;2023-06-10T23:54:10;15.40;99.90
21184;DHT22;18176;49.502;11.754;2023-06-10T23:58:11;15.40;99.90
